Aérodrome :
LOGIN :

S'inscrire | Disclaimer

   EN    FR    IT 

 










Légende :    VFR   VFR Marginal   IFR   IFR Intensif   IFR Très Intensif
Visi : 
Plafond : 
>= 8 km
>= 3000ft
5 à 8 km
1000 à 3000 ft
1500m à 5 km
500 à 1000 ft
800 à 1500m
200 à 500 ft
< 800m
< 200 ft
Symboles :   Orages  Brouillard  Fortes neiges  Fortes précipitations  Vent > 20 kt
SIGMETs :   Divers  Orages  Givrage  Turbulence  Onde Orograph.  Cendres Volcan.







- Altitude de l'aérodrome : 529 ft
- Code IATA : CHR
- Voir les cartes d'approche


LFLX - Chateauroux

DERNIER METAR :
  • 162100Z AUTO 08003KT CAVOK 05/00 Q1024 NOSIG

METARs EXPIRÉS :
  • 162030Z AUTO 09004KT CAVOK 06/00 Q1024 NOSIG
  • 162000Z AUTO 09004KT CAVOK 08/01 Q1024 NOSIG
  • 161930Z AUTO 08005KT CAVOK 09/01 Q1024 NOSIG
  • 161900Z AUTO 08005KT CAVOK 09/01 Q1024 NOSIG
  • 161830Z AUTO 07005KT CAVOK 10/01 Q1024 NOSIG

TAF TAF LFLX
Valide du 16 à 18h jusqu'au 18 à 00h UTC


161700Z 1618/1724 16003KT CAVOK
BECMG 1623/1702 6000 NSC
TEMPO 1702/1708 3000 BR
BECMG 1708/1710 20010KT CAVOK
Pas de NOTAMs connus pour ce terrain.



MET'MAP, la Météo Aéronautique d'un coup d'oeil ! - Copyright ORBIFLY Décembre 2007 - Disclaimer

ORBIFLY MET'MAP TEAM :

Programmation & Développement : Alexandra Zaïnal
Conception & Développement : Baudouin d'Aumeries
Co-Programmation & Développement : Marc-Olivier Méhu
Soutien technique & logistique : Manuel Goepfert

Contact : metmap@orbifly.com




SOURCES & CREDITS :

   NOAA